sensor_id;sensor_type;location;lat;lon;timestamp;pressure;altitude;pressure_sealevel;temperature;humidity
78990;BME280;68390;52.130;21.218;2023-11-21T00:01:06;99878.13;;;-0.61;100.00
78990;BME280;68390;52.130;21.218;2023-11-21T00:03:34;99875.69;;;-0.64;100.00
78990;BME280;68390;52.130;21.218;2023-11-21T00:05:59;99871.66;;;-0.59;100.00
78990;BME280;68390;52.130;21.218;2023-11-21T00:08:26;99883.88;;;-0.66;100.00
78990;BME280;68390;52.130;21.218;2023-11-21T00:10:52;99884.09;;;-0.69;100.00
78990;BME280;68390;52.130;21.218;2023-11-21T00:13:18;99882.72;;;-0.75;100.00
78990;BME280;68390;52.130;21.218;2023-11-21T00:15:43;99880.13;;;-0.76;100.00
78990;BME280;68390;52.130;21.218;2023-11-21T00:18:08;99875.06;;;-0.81;100.00
78990;BME280;68390;52.130;21.218;2023-11-21T00:20:34;99896.19;;;-0.75;100.00
78990;BME280;68390;52.130;21.218;2023-11-21T00:22:59;99902.78;;;-0.79;100.00
78990;BME280;68390;52.130;21.218;2023-11-21T00:25:25;99890.72;;;-0.86;100.00
78990;BME280;68390;52.130;21.218;2023-11-21T00:27:50;99901.81;;;-0.78;100.00
78990;BME280;68390;52.130;21.218;2023-11-21T00:30:16;99893.06;;;-0.81;100.00
78990;BME280;68390;52.130;21.218;2023-11-21T00:32:41;99888.22;;;-0.76;100.00
78990;BME280;68390;52.130;21.218;2023-11-21T00:35:07;99894.38;;;-0.74;100.00
78990;BME280;68390;52.130;21.218;2023-11-21T00:37:32;99903.31;;;-0.73;100.00
78990;BME280;68390;52.130;21.218;2023-11-21T00:39:58;99914.31;;;-0.77;100.00
78990;BME280;68390;52.130;21.218;2023-11-21T00:42:23;99905.47;;;-0.79;100.00
78990;BME280;68390;52.130;21.218;2023-11-21T00:44:49;99910.22;;;-0.82;100.00
78990;BME280;68390;52.130;21.218;2023-11-21T00:47:14;99913.03;;;-0.84;100.00
78990;BME280;68390;52.130;21.218;2023-11-21T00:49:39;99905.06;;;-0.85;100.00
78990;BME280;68390;52.130;21.218;2023-11-21T00:52:06;99919.81;;;-0.91;100.00
78990;BME280;68390;52.130;21.218;2023-11-21T00:54:31;99924.25;;;-0.90;100.00
78990;BME280;68390;52.130;21.218;2023-11-21T00:56:57;99929.75;;;-0.91;100.00
78990;BME280;68390;52.130;21.218;2023-11-21T00:59:22;99933.66;;;-0.95;100.00
78990;BME280;68390;52.130;21.218;2023-11-21T01:01:48;99932.03;;;-0.98;100.00
78990;BME280;68390;52.130;21.218;2023-11-21T01:04:14;99917.78;;;-1.00;100.00
78990;BME280;68390;52.130;21.218;2023-11-21T01:06:39;99940.00;;;-0.96;100.00
78990;BME280;68390;52.130;21.218;2023-11-21T01:09:04;99920.28;;;-0.97;100.00
78990;BME280;68390;52.130;21.218;2023-11-21T01:11:36;99929.22;;;-0.96;100.00
78990;BME280;68390;52.130;21.218;2023-11-21T01:14:03;99938.28;;;-0.97;100.00
78990;BME280;68390;52.130;21.218;2023-11-21T01:16:29;99936.53;;;-0.98;100.00
78990;BME280;68390;52.130;21.218;2023-11-21T01:18:55;99926.72;;;-0.99;100.00
78990;BME280;68390;52.130;21.218;2023-11-21T01:21:20;99938.16;;;-0.96;100.00
78990;BME280;68390;52.130;21.218;2023-11-21T01:23:46;99938.16;;;-0.96;100.00
78990;BME280;68390;52.130;21.218;2023-11-21T01:26:12;99936.22;;;-0.94;100.00
78990;BME280;68390;52.130;21.218;2023-11-21T01:28:38;99941.72;;;-0.95;100.00
78990;BME280;68390;52.130;21.218;2023-11-21T01:31:03;99936.97;;;-0.92;100.00
78990;BME280;68390;52.130;21.218;2023-11-21T01:33:29;99946.00;;;-0.93;100.00
78990;BME280;68390;52.130;21.218;2023-11-21T01:35:54;99952.16;;;-0.91;100.00
78990;BME280;68390;52.130;21.218;2023-11-21T01:38:20;99954.22;;;-0.94;100.00
78990;BME280;68390;52.130;21.218;2023-11-21T01:40:45;99936.53;;;-0.98;100.00
78990;BME280;68390;52.130;21.218;2023-11-21T01:43:11;99933.75;;;-0.97;100.00
78990;BME280;68390;52.130;21.218;2023-11-21T01:45:36;99942.81;;;-0.98;100.00
78990;BME280;68390;52.130;21.218;2023-11-21T01:48:02;99934.72;;;-0.98;100.00
78990;BME280;68390;52.130;21.218;2023-11-21T01:50:28;99937.41;;;-0.98;100.00
78990;BME280;68390;52.130;21.218;2023-11-21T01:52:54;99948.84;;;-0.94;100.00
78990;BME280;68390;52.130;21.218;2023-11-21T01:55:20;99943.56;;;-0.96;100.00
78990;BME280;68390;52.130;21.218;2023-11-21T01:57:46;99950.53;;;-0.93;100.00
78990;BME280;68390;52.130;21.218;2023-11-21T02:00:13;99951.41;;;-0.93;100.00
78990;BME280;68390;52.130;21.218;2023-11-21T02:02:45;99951.94;;;-1.00;100.00
78990;BME280;68390;52.130;21.218;2023-11-21T02:05:14;99953.56;;;-0.98;100.00
78990;BME280;68390;52.130;21.218;2023-11-21T02:07:40;99952.59;;;-0.97;100.00
78990;BME280;68390;52.130;21.218;2023-11-21T02:10:08;99954.44;;;-0.97;100.00
78990;BME280;68390;52.130;21.218;2023-11-21T02:12:34;99954.34;;;-0.96;100.00
78990;BME280;68390;52.130;21.218;2023-11-21T02:15:05;99949.38;;;-1.02;100.00
78990;BME280;68390;52.130;21.218;2023-11-21T02:17:35;99953.16;;;-1.04;100.00
78990;BME280;68390;52.130;21.218;2023-11-21T02:20:00;99945.06;;;-1.17;100.00
78990;BME280;68390;52.130;21.218;2023-11-21T02:22:29;99956.06;;;-1.07;100.00
78990;BME280;68390;52.130;21.218;2023-11-21T02:24:56;99958.84;;;-1.09;100.00
78990;BME280;68390;52.130;21.218;2023-11-21T02:27:23;99963.28;;;-1.08;100.00
78990;BME280;68390;52.130;21.218;2023-11-21T02:29:49;99961.56;;;-1.09;100.00
78990;BME280;68390;52.130;21.218;2023-11-21T02:32:14;99958.09;;;-1.11;100.00
78990;BME280;68390;52.130;21.218;2023-11-21T02:34:42;99966.19;;;-1.11;100.00
78990;BME280;68390;52.130;21.218;2023-11-21T02:37:08;99974.06;;;-1.08;100.00
78990;BME280;68390;52.130;21.218;2023-11-21T02:39:34;99979.44;;;-1.08;100.00
78990;BME280;68390;52.130;21.218;2023-11-21T02:42:00;99978.69;;;-1.10;100.00
78990;BME280;68390;52.130;21.218;2023-11-21T02:44:25;99979.66;;;-1.11;100.00
78990;BME280;68390;52.130;21.218;2023-11-21T02:46:51;99983.22;;;-1.11;100.00
78990;BME280;68390;52.130;21.218;2023-11-21T02:49:17;99964.56;;;-1.14;100.00
78990;BME280;68390;52.130;21.218;2023-11-21T02:51:42;99969.22;;;-1.16;100.00
78990;BME280;68390;52.130;21.218;2023-11-21T02:54:08;99975.47;;;-1.15;100.00
78990;BME280;68390;52.130;21.218;2023-11-21T02:56:34;99971.03;;;-1.16;100.00
78990;BME280;68390;52.130;21.218;2023-11-21T02:59:00;99971.91;;;-1.16;100.00
78990;BME280;68390;52.130;21.218;2023-11-21T03:01:26;99971.03;;;-1.16;100.00
78990;BME280;68390;52.130;21.218;2023-11-21T03:03:53;99976.00;;;-1.10;100.00
78990;BME280;68390;52.130;21.218;2023-11-21T03:06:19;99979.84;;;-1.14;100.00
78990;BME280;68390;52.130;21.218;2023-11-21T03:08:45;99977.41;;;-1.17;100.00
78990;BME280;68390;52.130;21.218;2023-11-21T03:11:11;99984.91;;;-1.22;100.00
78990;BME280;68390;52.130;21.218;2023-11-21T03:13:41;99984.81;;;-1.21;100.00
78990;BME280;68390;52.130;21.218;2023-11-21T03:16:11;99982.13;;;-1.21;100.00
78990;BME280;68390;52.130;21.218;2023-11-21T03:18:39;99975.66;;;-1.18;100.00
78990;BME280;68390;52.130;21.218;2023-11-21T03:21:06;99981.91;;;-1.18;100.00
78990;BME280;68390;52.130;21.218;2023-11-21T03:23:33;99985.69;;;-1.20;100.00
78990;BME280;68390;52.130;21.218;2023-11-21T03:25:59;99988.38;;;-1.20;100.00
78990;BME280;68390;52.130;21.218;2023-11-21T03:28:28;99987.94;;;-1.27;100.00
78990;BME280;68390;52.130;21.218;2023-11-21T03:30:57;99992.78;;;-1.32;100.00
78990;BME280;68390;52.130;21.218;2023-11-21T03:33:22;99985.31;;;-1.41;100.00
78990;BME280;68390;52.130;21.218;2023-11-21T03:35:48;99993.31;;;-1.39;100.00
78990;BME280;68390;52.130;21.218;2023-11-21T03:38:14;100003.75;;;-1.35;100.00
78990;BME280;68390;52.130;21.218;2023-11-21T03:40:39;100003.66;;;-1.33;100.00
78990;BME280;68390;52.130;21.218;2023-11-21T03:43:05;100003.88;;;-1.36;100.00
78990;BME280;68390;52.130;21.218;2023-11-21T03:45:31;100021.00;;;-1.37;100.00
78990;BME280;68390;52.130;21.218;2023-11-21T03:47:57;100017.34;;;-1.36;100.00
78990;BME280;68390;52.130;21.218;2023-11-21T03:50:22;100008.94;;;-1.32;100.00
78990;BME280;68390;52.130;21.218;2023-11-21T03:52:47;100019.41;;;-1.27;100.00
78990;BME280;68390;52.130;21.218;2023-11-21T03:55:13;100021.88;;;-1.24;100.00
78990;BME280;68390;52.130;21.218;2023-11-21T03:57:40;100028.97;;;-1.23;100.00
78990;BME280;68390;52.130;21.218;2023-11-21T04:00:06;100023.47;;;-1.34;100.00
78990;BME280;68390;52.130;21.218;2023-11-21T04:02:34;100027.25;;;-1.37;100.00
78990;BME280;68390;52.130;21.218;2023-11-21T04:05:00;100028.13;;;-1.36;100.00
78990;BME280;68390;52.130;21.218;2023-11-21T04:07:25;100008.28;;;-1.48;100.00
78990;BME280;68390;52.130;21.218;2023-11-21T04:09:50;100025.06;;;-1.44;100.00
78990;BME280;68390;52.130;21.218;2023-11-21T04:12:16;100026.44;;;-1.52;100.00
78990;BME280;68390;52.130;21.218;2023-11-21T04:14:42;100017.84;;;-1.57;100.00
78990;BME280;68390;52.130;21.218;2023-11-21T04:17:07;100021.16;;;-1.53;100.00
78990;BME280;68390;52.130;21.218;2023-11-21T04:19:32;100032.59;;;-1.50;100.00
78990;BME280;68390;52.130;21.218;2023-11-21T04:21:58;100028.28;;;-1.52;100.00
78990;BME280;68390;52.130;21.218;2023-11-21T04:24:23;100036.25;;;-1.51;100.00
78990;BME280;68390;52.130;21.218;2023-11-21T04:26:48;100017.94;;;-1.58;100.00
78990;BME280;68390;52.130;21.218;2023-11-21T04:29:14;100024.72;;;-1.53;100.00
78990;BME280;68390;52.130;21.218;2023-11-21T04:31:39;100030.78;;;-1.49;100.00
78990;BME280;68390;52.130;21.218;2023-11-21T04:34:05;100036.34;;;-1.52;100.00
78990;BME280;68390;52.130;21.218;2023-11-21T04:36:30;100051.53;;;-1.51;100.00
78990;BME280;68390;52.130;21.218;2023-11-21T04:38:56;100041.63;;;-1.51;100.00
78990;BME280;68390;52.130;21.218;2023-11-21T04:41:22;100055.19;;;-1.52;100.00
78990;BME280;68390;52.130;21.218;2023-11-21T04:43:47;100054.34;;;-1.53;100.00
78990;BME280;68390;52.130;21.218;2023-11-21T04:46:13;100050.59;;;-1.50;100.00
78990;BME280;68390;52.130;21.218;2023-11-21T04:48:38;100052.41;;;-1.51;100.00
78990;BME280;68390;52.130;21.218;2023-11-21T04:51:04;100050.69;;;-1.52;100.00
78990;BME280;68390;52.130;21.218;2023-11-21T04:53:30;100044.91;;;-1.45;100.00
78990;BME280;68390;52.130;21.218;2023-11-21T04:55:55;100042.59;;;-1.52;100.00
78990;BME280;68390;52.130;21.218;2023-11-21T04:58:20;100044.34;;;-1.51;100.00
78990;BME280;68390;52.130;21.218;2023-11-21T05:00:46;100052.41;;;-1.51;100.00
78990;BME280;68390;52.130;21.218;2023-11-21T05:03:11;100047.75;;;-1.61;100.00
78990;BME280;68390;52.130;21.218;2023-11-21T05:05:37;100054.69;;;-1.71;100.00
78990;BME280;68390;52.130;21.218;2023-11-21T05:08:03;100065.19;;;-1.67;100.00
78990;BME280;68390;52.130;21.218;2023-11-21T05:10:28;100057.09;;;-1.67;100.00
78990;BME280;68390;52.130;21.218;2023-11-21T05:12:54;100059.56;;;-1.64;100.00
78990;BME280;68390;52.130;21.218;2023-11-21T05:15:20;100053.22;;;-1.63;100.00
78990;BME280;68390;52.130;21.218;2023-11-21T05:17:46;100069.19;;;-1.60;100.00
78990;BME280;68390;52.130;21.218;2023-11-21T05:20:15;100054.94;;;-1.62;100.00
78990;BME280;68390;52.130;21.218;2023-11-21T05:22:53;100080.63;;;-1.56;100.00
78990;BME280;68390;52.130;21.218;2023-11-21T05:25:19;100081.44;;;-1.56;100.00
78990;BME280;68390;52.130;21.218;2023-11-21T05:27:48;100085.13;;;-1.57;100.00
78990;BME280;68390;52.130;21.218;2023-11-21T05:30:14;100083.19;;;-1.55;100.00
78990;BME280;68390;52.130;21.218;2023-11-21T05:32:40;100084.38;;;-1.59;100.00
78990;BME280;68390;52.130;21.218;2023-11-21T05:35:08;100091.25;;;-1.55;100.00
78990;BME280;68390;52.130;21.218;2023-11-21T05:37:37;100091.25;;;-1.55;100.00
78990;BME280;68390;52.130;21.218;2023-11-21T05:40:05;100093.84;;;-1.53;100.00
78990;BME280;68390;52.130;21.218;2023-11-21T05:42:32;100094.38;;;-1.61;100.00
78990;BME280;68390;52.130;21.218;2023-11-21T05:44:57;100104.94;;;-1.58;100.00
78990;BME280;68390;52.130;21.218;2023-11-21T05:47:24;100102.78;;;-1.53;100.00
78990;BME280;68390;52.130;21.218;2023-11-21T05:49:51;100110.22;;;-1.56;100.00
78990;BME280;68390;52.130;21.218;2023-11-21T05:52:17;100111.28;;;-1.59;100.00
78990;BME280;68390;52.130;21.218;2023-11-21T05:54:43;100115.63;;;-1.56;100.00
78990;BME280;68390;52.130;21.218;2023-11-21T05:57:08;100106.69;;;-1.57;100.00
78990;BME280;68390;52.130;21.218;2023-11-21T05:59:34;100109.25;;;-1.55;100.00
78990;BME280;68390;52.130;21.218;2023-11-21T06:01:59;100106.88;;;-1.60;100.00
78990;BME280;68390;52.130;21.218;2023-11-21T06:04:25;100110.34;;;-1.58;100.00
78990;BME280;68390;52.130;21.218;2023-11-21T06:06:51;100118.59;;;-1.61;100.00
78990;BME280;68390;52.130;21.218;2023-11-21T06:09:18;100124.53;;;-1.56;100.00
78990;BME280;68390;52.130;21.218;2023-11-21T06:11:43;100117.44;;;-1.57;100.00
78990;BME280;68390;52.130;21.218;2023-11-21T06:14:09;100119.03;;;-1.54;100.00
78990;BME280;68390;52.130;21.218;2023-11-21T06:16:36;100130.50;;;-1.51;100.00
78990;BME280;68390;52.130;21.218;2023-11-21T06:19:01;100127.81;;;-1.51;100.00
78990;BME280;68390;52.130;21.218;2023-11-21T06:21:27;100124.91;;;-1.48;100.00
78990;BME280;68390;52.130;21.218;2023-11-21T06:23:52;100130.59;;;-1.52;100.00
78990;BME280;68390;52.130;21.218;2023-11-21T06:26:18;100136.66;;;-1.49;100.00
78990;BME280;68390;52.130;21.218;2023-11-21T06:28:44;100143.09;;;-1.51;100.00
78990;BME280;68390;52.130;21.218;2023-11-21T06:31:09;100137.16;;;-1.56;100.00
78990;BME280;68390;52.130;21.218;2023-11-21T06:33:36;100139.38;;;-1.63;100.00
78990;BME280;68390;52.130;21.218;2023-11-21T06:36:01;100144.66;;;-1.61;100.00
78990;BME280;68390;52.130;21.218;2023-11-21T06:38:28;100153.19;;;-1.55;100.00
78990;BME280;68390;52.130;21.218;2023-11-21T06:40:58;100158.56;;;-1.55;100.00
78990;BME280;68390;52.130;21.218;2023-11-21T06:43:24;100164.63;;;-1.51;100.00
78990;BME280;68390;52.130;21.218;2023-11-21T06:45:49;100169.81;;;-1.48;100.00
78990;BME280;68390;52.130;21.218;2023-11-21T06:48:15;100167.22;;;-1.50;100.00
78990;BME280;68390;52.130;21.218;2023-11-21T06:50:40;100172.03;;;-1.55;100.00
78990;BME280;68390;52.130;21.218;2023-11-21T06:53:07;100171.06;;;-1.54;100.00
78990;BME280;68390;52.130;21.218;2023-11-21T06:55:33;100172.25;;;-1.58;100.00
78990;BME280;68390;52.130;21.218;2023-11-21T06:57:59;100187.22;;;-1.54;100.00
78990;BME280;68390;52.130;21.218;2023-11-21T07:00:25;100184.34;;;-1.51;100.00
78990;BME280;68390;52.130;21.218;2023-11-21T07:02:53;100177.41;;;-1.55;100.00
78990;BME280;68390;52.130;21.218;2023-11-21T07:05:18;100175.22;;;-1.48;100.00
78990;BME280;68390;52.130;21.218;2023-11-21T07:07:46;100180.69;;;-1.50;100.00
78990;BME280;68390;52.130;21.218;2023-11-21T07:10:11;100174.06;;;-1.58;100.00
78990;BME280;68390;52.130;21.218;2023-11-21T07:12:37;100174.06;;;-1.58;100.00
78990;BME280;68390;52.130;21.218;2023-11-21T07:15:03;100186.25;;;-1.53;100.00
78990;BME280;68390;52.130;21.218;2023-11-21T07:17:31;100188.75;;;-1.50;100.00
78990;BME280;68390;52.130;21.218;2023-11-21T07:19:56;100195.88;;;-1.49;100.00
78990;BME280;68390;52.130;21.218;2023-11-21T07:22:22;100194.16;;;-1.50;100.00
78990;BME280;68390;52.130;21.218;2023-11-21T07:24:50;100194.69;;;-1.44;100.00
78990;BME280;68390;52.130;21.218;2023-11-21T07:27:18;100198.94;;;-1.40;100.00
78990;BME280;68390;52.130;21.218;2023-11-21T07:29:44;100202.22;;;-1.35;100.00
78990;BME280;68390;52.130;21.218;2023-11-21T07:32:10;100212.84;;;-1.34;100.00
78990;BME280;68390;52.130;21.218;2023-11-21T07:34:36;100207.78;;;-1.38;100.00
78990;BME280;68390;52.130;21.218;2023-11-21T07:37:02;100207.59;;;-1.35;100.00
78990;BME280;68390;52.130;21.218;2023-11-21T07:39:28;100206.41;;;-1.31;100.00
78990;BME280;68390;52.130;21.218;2023-11-21T07:41:54;100216.41;;;-1.33;100.00
78990;BME280;68390;52.130;21.218;2023-11-21T07:44:19;100210.16;;;-1.34;100.00
78990;BME280;68390;52.130;21.218;2023-11-21T07:46:45;100203.03;;;-1.35;100.00
78990;BME280;68390;52.130;21.218;2023-11-21T07:49:11;100192.88;;;-1.44;100.00
78990;BME280;68390;52.130;21.218;2023-11-21T07:51:41;100214.41;;;-1.30;100.00
78990;BME280;68390;52.130;21.218;2023-11-21T07:54:06;100210.16;;;-1.34;100.00
78990;BME280;68390;52.130;21.218;2023-11-21T07:56:31;100207.78;;;-1.38;100.00
78990;BME280;68390;52.130;21.218;2023-11-21T07:58:57;100201.63;;;-1.40;100.00
78990;BME280;68390;52.130;21.218;2023-11-21T08:01:22;100202.41;;;-1.38;100.00
78990;BME280;68390;52.130;21.218;2023-11-21T08:03:48;100202.22;;;-1.35;100.00
78990;BME280;68390;52.130;21.218;2023-11-21T08:06:16;100212.31;;;-1.39;100.00
78990;BME280;68390;52.130;21.218;2023-11-21T08:08:42;100218.66;;;-1.40;100.00
78990;BME280;68390;52.130;21.218;2023-11-21T08:11:08;100216.75;;;-1.52;100.00
78990;BME280;68390;52.130;21.218;2023-11-21T08:13:35;100223.19;;;-1.55;100.00
78990;BME280;68390;52.130;21.218;2023-11-21T08:16:00;100229.66;;;-1.57;100.00
78990;BME280;68390;52.130;21.218;2023-11-21T08:18:30;100228.28;;;-1.64;100.00
78990;BME280;68390;52.130;21.218;2023-11-21T08:20:56;100235.31;;;-1.62;100.00
78990;BME280;68390;52.130;21.218;2023-11-21T08:23:22;100233.69;;;-1.64;100.00
78990;BME280;68390;52.130;21.218;2023-11-21T08:25:51;100235.91;;;-1.57;100.00
78990;BME280;68390;52.130;21.218;2023-11-21T08:28:18;100242.25;;;-1.58;100.00
78990;BME280;68390;52.130;21.218;2023-11-21T08:30:43;100237.91;;;-1.60;100.00
78990;BME280;68390;52.130;21.218;2023-11-21T08:33:09;100243.13;;;-1.57;100.00
78990;BME280;68390;52.130;21.218;2023-11-21T08:35:36;100237.72;;;-1.57;100.00
78990;BME280;68390;52.130;21.218;2023-11-21T08:38:02;100240.44;;;-1.57;100.00
78990;BME280;68390;52.130;21.218;2023-11-21T08:40:28;100248.59;;;-1.59;100.00
78990;BME280;68390;52.130;21.218;2023-11-21T08:42:54;100239.66;;;-1.59;100.00
78990;BME280;68390;52.130;21.218;2023-11-21T08:45:21;100258.31;;;-1.56;100.00
78990;BME280;68390;52.130;21.218;2023-11-21T08:47:47;100250.31;;;-1.58;100.00
78990;BME280;68390;52.130;21.218;2023-11-21T08:50:13;100260.19;;;-1.44;100.00
78990;BME280;68390;52.130;21.218;2023-11-21T08:52:39;100261.66;;;-1.38;100.00
78990;BME280;68390;52.130;21.218;2023-11-21T08:55:06;100255.31;;;-1.37;100.00
78990;BME280;68390;52.130;21.218;2023-11-21T08:57:38;100261.47;;;-1.35;100.00
78990;BME280;68390;52.130;21.218;2023-11-21T09:00:04;100266.84;;;-1.35;100.00
78990;BME280;68390;52.130;21.218;2023-11-21T09:02:36;100256.91;;;-1.35;100.00
78990;BME280;68390;52.130;21.218;2023-11-21T09:05:03;100267.50;;;-1.32;100.00
78990;BME280;68390;52.130;21.218;2023-11-21T09:07:29;100262.78;;;-1.28;100.00
78990;BME280;68390;52.130;21.218;2023-11-21T09:09:55;100262.00;;;-1.30;100.00
78990;BME280;68390;52.130;21.218;2023-11-21T09:12:20;100267.97;;;-1.25;100.00
78990;BME280;68390;52.130;21.218;2023-11-21T09:14:47;100272.88;;;-1.18;100.00
78990;BME280;68390;52.130;21.218;2023-11-21T09:17:12;100264.50;;;-1.27;100.00
78990;BME280;68390;52.130;21.218;2023-11-21T09:19:38;100269.50;;;-1.21;100.00
78990;BME280;68390;52.130;21.218;2023-11-21T09:22:04;100279.91;;;-1.15;100.00
78990;BME280;68390;52.130;21.218;2023-11-21T09:24:33;100283.66;;;-1.18;100.00
78990;BME280;68390;52.130;21.218;2023-11-21T09:26:59;100280.38;;;-1.23;100.00
78990;BME280;68390;52.130;21.218;2023-11-21T09:29:28;100283.16;;;-1.24;100.00
78990;BME280;68390;52.130;21.218;2023-11-21T09:31:54;100280.47;;;-1.24;100.00
78990;BME280;68390;52.130;21.218;2023-11-21T09:34:20;100287.81;;;-1.26;100.00
78990;BME280;68390;52.130;21.218;2023-11-21T09:36:46;100285.09;;;-1.26;100.00
78990;BME280;68390;52.130;21.218;2023-11-21T09:39:12;100285.84;;;-1.24;100.00
78990;BME280;68390;52.130;21.218;2023-11-21T09:41:51;100291.38;;;-1.26;100.00
78990;BME280;68390;52.130;21.218;2023-11-21T09:44:35;100280.19;;;-1.34;100.00
78990;BME280;68390;52.130;21.218;2023-11-21T09:47:01;100280.88;;;-1.30;100.00
78990;BME280;68390;52.130;21.218;2023-11-21T09:49:28;100286.16;;;-1.29;100.00
78990;BME280;68390;52.130;21.218;2023-11-21T09:51:58;100282.31;;;-1.25;100.00
78990;BME280;68390;52.130;21.218;2023-11-21T09:54:25;100280.28;;;-1.21;100.00
78990;BME280;68390;52.130;21.218;2023-11-21T09:56:51;100292.75;;;-1.06;100.00
78990;BME280;68390;52.130;21.218;2023-11-21T09:59:17;100288.03;;;-1.02;100.00
78990;BME280;68390;52.130;21.218;2023-11-21T10:01:44;100283.50;;;-1.02;100.00
78990;BME280;68390;52.130;21.218;2023-11-21T10:04:12;100294.75;;;-0.95;100.00
78990;BME280;68390;52.130;21.218;2023-11-21T10:06:41;100291.19;;;-0.96;99.36
78990;BME280;68390;52.130;21.218;2023-11-21T10:09:12;100294.66;;;-0.94;99.70
78990;BME280;68390;52.130;21.218;2023-11-21T10:11:49;100296.59;;;-0.96;99.54
78990;BME280;68390;52.130;21.218;2023-11-21T10:14:17;100298.97;;;-0.91;99.39
78990;BME280;68390;52.130;21.218;2023-11-21T10:16:44;100294.94;;;-0.84;100.00
78990;BME280;68390;52.130;21.218;2023-11-21T10:19:12;100293.84;;;-0.82;100.00
78990;BME280;68390;52.130;21.218;2023-11-21T10:21:41;100298.16;;;-0.79;99.95
78990;BME280;68390;52.130;21.218;2023-11-21T10:24:07;100311.44;;;-0.76;98.35
78990;BME280;68390;52.130;21.218;2023-11-21T10:26:33;100304.22;;;-0.76;98.05
78990;BME280;68390;52.130;21.218;2023-11-21T10:29:00;100304.88;;;-0.72;98.51
78990;BME280;68390;52.130;21.218;2023-11-21T10:31:33;100313.09;;;-0.73;99.09
78990;BME280;68390;52.130;21.218;2023-11-21T10:34:14;100305.75;;;-0.71;98.89
78990;BME280;68390;52.130;21.218;2023-11-21T10:36:40;100296.91;;;-0.73;97.30
78990;BME280;68390;52.130;21.218;2023-11-21T10:39:05;100292.84;;;-0.66;97.66
78990;BME280;68390;52.130;21.218;2023-11-21T10:41:31;100304.16;;;-0.61;97.62
78990;BME280;68390;52.130;21.218;2023-11-21T10:43:57;100297.59;;;-0.57;98.02
78990;BME280;68390;52.130;21.218;2023-11-21T10:46:22;100300.50;;;-0.60;97.16
78990;BME280;68390;52.130;21.218;2023-11-21T10:48:55;100311.44;;;-0.49;97.81
78990;BME280;68390;52.130;21.218;2023-11-21T10:51:21;100306.63;;;-0.44;97.06
78990;BME280;68390;52.130;21.218;2023-11-21T10:53:47;100304.13;;;-0.47;96.81
78990;BME280;68390;52.130;21.218;2023-11-21T10:56:16;100313.13;;;-0.34;97.29
78990;BME280;68390;52.130;21.218;2023-11-21T10:58:45;100309.34;;;-0.31;98.42
78990;BME280;68390;52.130;21.218;2023-11-21T11:01:11;100313.03;;;-0.32;96.74
78990;BME280;68390;52.130;21.218;2023-11-21T11:03:37;100309.78;;;-0.25;96.60
78990;BME280;68390;52.130;21.218;2023-11-21T11:06:04;100313.47;;;-0.26;97.04
78990;BME280;68390;52.130;21.218;2023-11-21T11:08:32;100316.09;;;-0.12;97.48
78990;BME280;68390;52.130;21.218;2023-11-21T11:10:59;100305.50;;;-0.15;95.74
78990;BME280;68390;52.130;21.218;2023-11-21T11:13:25;100321.69;;;-0.15;94.95
78990;BME280;68390;52.130;21.218;2023-11-21T11:15:51;100313.16;;;-0.09;96.09
78990;BME280;68390;52.130;21.218;2023-11-21T11:18:21;100317.59;;;-0.08;96.24
78990;BME280;68390;52.130;21.218;2023-11-21T11:20:48;100316.31;;;-0.02;96.94
78990;BME280;68390;52.130;21.218;2023-11-21T11:26:31;100325.19;;;0.00;95.29
78990;BME280;68390;52.130;21.218;2023-11-21T11:29:33;100325.50;;;-0.05;95.24
78990;BME280;68390;52.130;21.218;2023-11-21T11:34:50;100327.06;;;-0.27;95.08
78990;BME280;68390;52.130;21.218;2023-11-21T11:37:19;100322.47;;;-0.40;95.74
78990;BME280;68390;52.130;21.218;2023-11-21T11:39:44;100318.38;;;-0.45;96.86
78990;BME280;68390;52.130;21.218;2023-11-21T11:42:16;100330.03;;;-0.45;96.21
78990;BME280;68390;52.130;21.218;2023-11-21T11:50:00;100344.06;;;-0.40;96.69
78990;BME280;68390;52.130;21.218;2023-11-21T11:52:42;100329.69;;;-0.53;95.91
78990;BME280;68390;52.130;21.218;2023-11-21T11:55:21;100331.91;;;-0.59;96.77
78990;BME280;68390;52.130;21.218;2023-11-21T11:57:50;100341.56;;;-0.69;95.97
78990;BME280;68390;52.130;21.218;2023-11-21T12:02:57;100348.88;;;-0.71;96.99
78990;BME280;68390;52.130;21.218;2023-11-21T12:05:25;100346.31;;;-0.73;96.63
78990;BME280;68390;52.130;21.218;2023-11-21T12:10:21;100348.13;;;-0.73;98.10
78990;BME280;68390;52.130;21.218;2023-11-21T12:12:48;100355.13;;;-0.71;97.47
78990;BME280;68390;52.130;21.218;2023-11-21T12:15:14;100354.00;;;-0.81;96.20
78990;BME280;68390;52.130;21.218;2023-11-21T12:17:42;100356.50;;;-0.78;97.16
78990;BME280;68390;52.130;21.218;2023-11-21T12:20:09;100354.09;;;-0.83;98.04
78990;BME280;68390;52.130;21.218;2023-11-21T12:22:42;100352.09;;;-0.79;96.94
78990;BME280;68390;52.130;21.218;2023-11-21T12:25:08;100350.75;;;-0.86;96.63
78990;BME280;68390;52.130;21.218;2023-11-21T12:27:33;100355.84;;;-0.82;97.68
78990;BME280;68390;52.130;21.218;2023-11-21T12:29:59;100350.00;;;-0.88;98.10
78990;BME280;68390;52.130;21.218;2023-11-21T12:32:24;100363.38;;;-0.87;97.27
78990;BME280;68390;52.130;21.218;2023-11-21T12:34:51;100354.31;;;-0.86;97.83
78990;BME280;68390;52.130;21.218;2023-11-21T12:37:16;100362.69;;;-0.90;98.18
78990;BME280;68390;52.130;21.218;2023-11-21T12:39:42;100361.81;;;-0.91;99.02
78990;BME280;68390;52.130;21.218;2023-11-21T12:42:07;100365.69;;;-0.95;99.35
78990;BME280;68390;52.130;21.218;2023-11-21T12:44:34;100368.59;;;-0.98;97.73
78990;BME280;68390;52.130;21.218;2023-11-21T12:46:59;100372.34;;;-1.00;97.60
78990;BME280;68390;52.130;21.218;2023-11-21T12:49:24;100365.31;;;-1.03;97.70